Impacts METAR Board
IDs:

KBOS - Boston/Logan Intl, MA, US

Updated at: 1200 UTC 09 Jul 2020
Potential Impact None Slight Moderate High
Time 09/00Z 09/01Z 09/02Z 09/03Z 09/04Z 09/05Z 09/06Z 09/07Z 09/08Z 09/09Z 09/10Z 09/11Z 09/12Z
Temp79 80 77 75 73 73 74 73 73 72 73 75 78
Dewpt68 68 68 68 69 70 70 69 69 69 69 70 70
Altim29.92 29.93 29.95 29.94 29.96 29.96 29.96 29.96 29.96 29.96 29.99 30.00 30.01
VIS10 10 10 10 10 10 10 10 10 10 10 10 10
CIG110 120 -- -- -- 16 -- -- -- -- -- -- --
CoverOVCBKNSCTFEWSCTOVCSCTFEWFEWFEWFEWFEWSCT
FltCatVFRVFRVFRVFRVFRMVFRVFRVFRVFRVFRVFRVFRVFR
WX-RA------------------------
WDir230240210210180160220240240240220250240
WSpd15 10 8 8 4 5 10 7 7 8 6 7 8
WGst-- -- -- -- -- -- -- -- -- -- -- -- --
Raw hourly METARs
KBOS 082354Z 23015KT 10SM -RA FEW065 BKN110 OVC200 26/20 A2992 RMK AO2 RAB33 SLP130 P0000 60000 T02610200 10294 20261 50002
KBOS 090054Z 24010KT 10SM FEW090 BKN120 BKN220 27/20 A2993 RMK AO2 RAE2355 SLP136 P0000 T02670200
KBOS 090154Z 21008KT 10SM FEW090 FEW140 SCT250 25/20 A2995 RMK AO2 SLP140 T02500200
KBOS 090254Z 21008KT 10SM FEW090 24/20 A2994 RMK AO2 SLP139 60000 T02390200 50009
KBOS 090400Z 18004KT 10SM SCT017 23/21 A2996 RMK AO2 T02280206
KBOS 090454Z 16005KT 10SM OVC016 23/21 A2996 RMK AO2 SLP146 T02280211 402940194
KBOS 090554Z 22010KT 10SM SCT015 23/21 A2996 RMK AO2 SLP144 60000 T02330211 10267 20222 50005
KBOS 090654Z 24007KT 10SM FEW015 23/21 A2996 RMK AO2 SLP145 T02280206
KBOS 090754Z 24007KT 10SM FEW015 23/21 A2996 RMK AO2 SLP144 T02280206
KBOS 090854Z 24008KT 10SM FEW015 22/21 A2996 RMK AO2 SLP143 T02220206 58001
KBOS 090954Z 22006KT 10SM FEW030 23/21 A2999 RMK AO2 SLP153 T02280206
KBOS 091054Z 25007KT 10SM FEW015 24/21 A3000 RMK AO2 SLP159 T02390211
KBOS 091154Z 24008KT 10SM SCT015 SCT250 26/21 A3001 RMK AO2 SLP160 T02560211 10256 20222 51017



Page loaded:  12:06 UTC  |   05:06 AM Pacific  |   06:06 AM Mountain  |   07:06 AM Central  |   08:06 AM Eastern

 

ADVISORIES

FORECASTS

FORECASTS

OBSERVATIONS

USER TOOLS

ABOUT US